sensor_id;sensor_type;location;lat;lon;timestamp;pressure;altitude;pressure_sealevel;temperature;humidity
21361;BME280;10839;43.206;23.550;2023-08-06T00:00:38;96021.47;;;24.78;70.75
21361;BME280;10839;43.206;23.550;2023-08-06T00:03:04;96034.72;;;24.76;71.11
21361;BME280;10839;43.206;23.550;2023-08-06T00:05:30;96024.59;;;24.50;72.30
21361;BME280;10839;43.206;23.550;2023-08-06T00:07:56;96039.84;;;24.56;72.53
21361;BME280;10839;43.206;23.550;2023-08-06T00:10:22;96033.63;;;24.28;73.66
21361;BME280;10839;43.206;23.550;2023-08-06T00:12:48;96034.22;;;24.39;73.21
21361;BME280;10839;43.206;23.550;2023-08-06T00:15:14;96066.19;;;24.35;74.01
21361;BME280;10839;43.206;23.550;2023-08-06T00:17:40;96063.44;;;24.35;74.53
21361;BME280;10839;43.206;23.550;2023-08-06T00:20:06;96059.22;;;24.15;75.99
21361;BME280;10839;43.206;23.550;2023-08-06T00:22:33;96062.38;;;24.22;76.24
21361;BME280;10839;43.206;23.550;2023-08-06T00:24:59;96068.44;;;24.19;76.91
21361;BME280;10839;43.206;23.550;2023-08-06T00:27:25;96062.31;;;23.68;80.39
21361;BME280;10839;43.206;23.550;2023-08-06T00:29:52;96055.19;;;23.94;79.20
21361;BME280;10839;43.206;23.550;2023-08-06T00:32:18;96055.31;;;23.89;79.76
21361;BME280;10839;43.206;23.550;2023-08-06T00:34:44;96078.81;;;23.81;80.60
21361;BME280;10839;43.206;23.550;2023-08-06T00:37:10;96092.28;;;23.96;80.37
21361;BME280;10839;43.206;23.550;2023-08-06T00:39:36;96091.44;;;23.96;80.68
21361;BME280;10839;43.206;23.550;2023-08-06T00:42:02;96081.25;;;23.83;82.37
21361;BME280;10839;43.206;23.550;2023-08-06T00:44:30;96101.84;;;23.85;83.24
21361;BME280;10839;43.206;23.550;2023-08-06T00:46:56;96094.28;;;23.77;84.15
21361;BME280;10839;43.206;23.550;2023-08-06T00:49:22;96103.03;;;23.66;85.50
21361;BME280;10839;43.206;23.550;2023-08-06T00:51:49;96064.78;;;23.69;86.76
21361;BME280;10839;43.206;23.550;2023-08-06T00:54:15;95987.75;;;23.02;90.57
21361;BME280;10839;43.206;23.550;2023-08-06T00:56:42;95957.88;;;21.75;100.00
21361;BME280;10839;43.206;23.550;2023-08-06T00:59:10;95928.09;;;21.50;100.00
21361;BME280;10839;43.206;23.550;2023-08-06T01:01:36;95936.19;;;22.02;100.00
21361;BME280;10839;43.206;23.550;2023-08-06T01:04:02;95948.47;;;22.23;100.00
21361;BME280;10839;43.206;23.550;2023-08-06T01:07:21;95994.75;;;22.43;100.00
21361;BME280;10839;43.206;23.550;2023-08-06T01:10:22;95979.69;;;22.59;100.00
21361;BME280;10839;43.206;23.550;2023-08-06T01:13:11;95974.69;;;22.80;100.00
21361;BME280;10839;43.206;23.550;2023-08-06T01:15:50;95959.91;;;22.95;98.36
21361;BME280;10839;43.206;23.550;2023-08-06T01:18:21;95960.69;;;22.82;100.00
21361;BME280;10839;43.206;23.550;2023-08-06T01:20:46;95960.84;;;22.71;100.00
21361;BME280;10839;43.206;23.550;2023-08-06T01:23:12;95953.88;;;22.93;99.44
21361;BME280;10839;43.206;23.550;2023-08-06T01:29:13;95958.81;;;22.63;99.92
21361;BME280;10839;43.206;23.550;2023-08-06T01:31:43;95950.56;;;21.94;100.00
21361;BME280;10839;43.206;23.550;2023-08-06T01:34:21;95939.06;;;22.11;100.00
21361;BME280;10839;43.206;23.550;2023-08-06T01:36:48;95953.00;;;22.46;100.00
21361;BME280;10839;43.206;23.550;2023-08-06T01:39:15;95930.25;;;22.64;99.88
21361;BME280;10839;43.206;23.550;2023-08-06T01:41:41;95925.72;;;22.73;99.39
21361;BME280;10839;43.206;23.550;2023-08-06T01:44:06;95933.59;;;22.61;99.40
21361;BME280;10839;43.206;23.550;2023-08-06T01:46:32;95921.22;;;22.77;97.84
21361;BME280;10839;43.206;23.550;2023-08-06T01:48:58;95923.50;;;22.75;97.72
21361;BME280;10839;43.206;23.550;2023-08-06T01:51:25;95924.59;;;22.42;99.95
21361;BME280;10839;43.206;23.550;2023-08-06T01:53:51;95923.97;;;22.45;99.80
21361;BME280;10839;43.206;23.550;2023-08-06T01:56:17;95920.06;;;22.84;96.90
21361;BME280;10839;43.206;23.550;2023-08-06T01:58:44;95926.91;;;22.67;98.62
21361;BME280;10839;43.206;23.550;2023-08-06T02:01:10;95926.63;;;22.50;99.03
21361;BME280;10839;43.206;23.550;2023-08-06T02:03:36;95910.97;;;22.37;100.00
21361;BME280;10839;43.206;23.550;2023-08-06T02:06:02;95926.06;;;22.53;100.00
21361;BME280;10839;43.206;23.550;2023-08-06T02:08:28;95932.91;;;22.51;100.00
21361;BME280;10839;43.206;23.550;2023-08-06T02:10:53;95922.84;;;22.46;100.00
21361;BME280;10839;43.206;23.550;2023-08-06T02:13:20;95915.94;;;22.67;100.00
21361;BME280;10839;43.206;23.550;2023-08-06T02:15:46;95919.19;;;22.69;100.00
21361;BME280;10839;43.206;23.550;2023-08-06T02:18:15;95915.56;;;22.88;98.89
21361;BME280;10839;43.206;23.550;2023-08-06T02:20:42;95912.63;;;22.98;98.39
21361;BME280;10839;43.206;23.550;2023-08-06T02:23:23;95917.03;;;22.99;98.29
21361;BME280;10839;43.206;23.550;2023-08-06T02:26:03;95916.44;;;22.69;99.31
21361;BME280;10839;43.206;23.550;2023-08-06T02:28:30;95919.69;;;22.39;100.00
21361;BME280;10839;43.206;23.550;2023-08-06T02:30:56;95932.47;;;22.30;100.00
21361;BME280;10839;43.206;23.550;2023-08-06T02:33:22;95924.19;;;22.49;100.00
21361;BME280;10839;43.206;23.550;2023-08-06T02:35:48;95925.00;;;22.49;100.00
21361;BME280;10839;43.206;23.550;2023-08-06T02:38:14;95932.06;;;22.55;100.00
21361;BME280;10839;43.206;23.550;2023-08-06T02:40:47;95926.31;;;22.70;100.00
21361;BME280;10839;43.206;23.550;2023-08-06T02:43:13;95929.09;;;22.52;100.00
21361;BME280;10839;43.206;23.550;2023-08-06T02:45:39;95931.09;;;22.46;100.00
21361;BME280;10839;43.206;23.550;2023-08-06T02:48:05;95920.50;;;22.40;100.00
21361;BME280;10839;43.206;23.550;2023-08-06T02:50:38;95932.81;;;22.42;100.00
21361;BME280;10839;43.206;23.550;2023-08-06T02:53:05;95937.56;;;22.37;100.00
21361;BME280;10839;43.206;23.550;2023-08-06T02:55:31;95953.09;;;22.60;100.00
21361;BME280;10839;43.206;23.550;2023-08-06T02:57:57;95958.88;;;22.58;100.00
21361;BME280;10839;43.206;23.550;2023-08-06T03:00:23;95966.78;;;22.78;100.00
21361;BME280;10839;43.206;23.550;2023-08-06T03:02:50;95950.53;;;22.82;99.67
21361;BME280;10839;43.206;23.550;2023-08-06T03:05:38;95927.44;;;22.51;100.00
21361;BME280;10839;43.206;23.550;2023-08-06T03:08:04;95924.41;;;22.52;99.68
21361;BME280;10839;43.206;23.550;2023-08-06T03:10:32;95935.59;;;22.05;100.00
21361;BME280;10839;43.206;23.550;2023-08-06T03:13:01;95924.53;;;21.92;100.00
21361;BME280;10839;43.206;23.550;2023-08-06T03:15:28;95923.56;;;22.01;100.00
21361;BME280;10839;43.206;23.550;2023-08-06T03:17:56;95946.53;;;22.05;100.00
21361;BME280;10839;43.206;23.550;2023-08-06T03:20:21;95965.50;;;22.20;100.00
21361;BME280;10839;43.206;23.550;2023-08-06T03:22:47;95952.41;;;22.49;100.00
21361;BME280;10839;43.206;23.550;2023-08-06T03:25:14;95931.31;;;22.31;100.00
21361;BME280;10839;43.206;23.550;2023-08-06T03:27:45;95877.69;;;21.93;100.00
21361;BME280;10839;43.206;23.550;2023-08-06T03:30:12;95905.66;;;21.90;100.00
21361;BME280;10839;43.206;23.550;2023-08-06T03:32:39;95920.91;;;21.12;100.00
21361;BME280;10839;43.206;23.550;2023-08-06T03:35:07;95924.69;;;20.64;100.00
21361;BME280;10839;43.206;23.550;2023-08-06T03:37:32;95905.19;;;21.22;100.00
21361;BME280;10839;43.206;23.550;2023-08-06T03:39:58;95919.22;;;21.58;100.00
21361;BME280;10839;43.206;23.550;2023-08-06T03:42:24;95920.03;;;21.82;100.00
21361;BME280;10839;43.206;23.550;2023-08-06T03:44:50;95943.06;;;21.76;100.00
21361;BME280;10839;43.206;23.550;2023-08-06T03:47:15;95970.00;;;21.93;100.00
21361;BME280;10839;43.206;23.550;2023-08-06T03:49:42;95990.63;;;22.09;100.00
21361;BME280;10839;43.206;23.550;2023-08-06T03:52:09;95948.03;;;21.79;100.00
21361;BME280;10839;43.206;23.550;2023-08-06T03:54:35;95939.53;;;21.33;100.00
21361;BME280;10839;43.206;23.550;2023-08-06T03:57:01;95920.16;;;21.30;100.00
21361;BME280;10839;43.206;23.550;2023-08-06T03:59:27;95923.34;;;21.37;100.00
21361;BME280;10839;43.206;23.550;2023-08-06T04:01:52;95936.09;;;20.71;100.00
21361;BME280;10839;43.206;23.550;2023-08-06T04:04:18;95929.06;;;21.17;100.00
21361;BME280;10839;43.206;23.550;2023-08-06T04:06:44;95915.81;;;21.66;100.00
21361;BME280;10839;43.206;23.550;2023-08-06T04:09:10;95920.91;;;21.96;100.00
21361;BME280;10839;43.206;23.550;2023-08-06T04:11:36;95896.25;;;21.96;100.00
21361;BME280;10839;43.206;23.550;2023-08-06T04:14:02;95876.31;;;22.09;100.00
21361;BME280;10839;43.206;23.550;2023-08-06T04:16:30;95893.44;;;22.01;100.00
21361;BME280;10839;43.206;23.550;2023-08-06T04:18:56;95895.34;;;22.19;100.00
21361;BME280;10839;43.206;23.550;2023-08-06T04:21:22;95902.06;;;21.71;100.00
21361;BME280;10839;43.206;23.550;2023-08-06T04:23:47;95916.78;;;21.80;100.00
21361;BME280;10839;43.206;23.550;2023-08-06T04:26:14;95908.34;;;21.95;100.00
21361;BME280;10839;43.206;23.550;2023-08-06T04:28:40;95907.56;;;22.27;100.00
21361;BME280;10839;43.206;23.550;2023-08-06T04:31:06;95877.81;;;22.20;100.00
21361;BME280;10839;43.206;23.550;2023-08-06T04:33:33;95893.38;;;21.69;100.00
21361;BME280;10839;43.206;23.550;2023-08-06T04:36:04;95925.28;;;21.97;100.00
21361;BME280;10839;43.206;23.550;2023-08-06T04:38:30;95933.84;;;22.28;100.00
21361;BME280;10839;43.206;23.550;2023-08-06T04:40:58;95930.44;;;22.36;100.00
21361;BME280;10839;43.206;23.550;2023-08-06T04:43:24;95954.84;;;22.00;100.00
21361;BME280;10839;43.206;23.550;2023-08-06T04:45:54;95923.66;;;22.15;100.00
21361;BME280;10839;43.206;23.550;2023-08-06T04:48:21;95895.19;;;21.74;100.00
21361;BME280;10839;43.206;23.550;2023-08-06T04:50:48;95885.03;;;21.79;100.00
21361;BME280;10839;43.206;23.550;2023-08-06T04:53:15;95840.09;;;21.80;100.00
21361;BME280;10839;43.206;23.550;2023-08-06T04:55:42;95859.59;;;21.74;100.00
21361;BME280;10839;43.206;23.550;2023-08-06T04:58:09;95904.31;;;21.69;100.00
21361;BME280;10839;43.206;23.550;2023-08-06T05:00:36;95912.28;;;21.47;100.00
21361;BME280;10839;43.206;23.550;2023-08-06T05:03:02;95906.09;;;21.36;100.00
21361;BME280;10839;43.206;23.550;2023-08-06T05:05:28;95919.75;;;20.66;100.00
21361;BME280;10839;43.206;23.550;2023-08-06T05:07:56;95927.19;;;19.88;100.00
21361;BME280;10839;43.206;23.550;2023-08-06T05:10:26;95897.25;;;20.06;100.00
21361;BME280;10839;43.206;23.550;2023-08-06T05:12:52;95897.66;;;20.28;100.00
21361;BME280;10839;43.206;23.550;2023-08-06T05:15:18;95881.00;;;21.11;100.00
21361;BME280;10839;43.206;23.550;2023-08-06T05:17:44;95878.63;;;21.65;100.00
21361;BME280;10839;43.206;23.550;2023-08-06T05:20:11;95855.75;;;21.93;100.00
21361;BME280;10839;43.206;23.550;2023-08-06T05:22:37;95879.72;;;22.20;100.00
21361;BME280;10839;43.206;23.550;2023-08-06T05:25:02;95899.06;;;22.10;100.00
21361;BME280;10839;43.206;23.550;2023-08-06T05:27:29;95901.78;;;22.28;100.00
21361;BME280;10839;43.206;23.550;2023-08-06T05:29:55;95909.47;;;21.94;100.00
21361;BME280;10839;43.206;23.550;2023-08-06T05:32:22;95914.97;;;22.26;100.00
21361;BME280;10839;43.206;23.550;2023-08-06T05:34:48;95921.50;;;22.30;100.00
21361;BME280;10839;43.206;23.550;2023-08-06T05:37:14;95909.63;;;22.16;100.00
21361;BME280;10839;43.206;23.550;2023-08-06T05:39:40;95896.78;;;21.98;100.00
21361;BME280;10839;43.206;23.550;2023-08-06T05:42:07;95898.56;;;21.89;100.00
21361;BME280;10839;43.206;23.550;2023-08-06T05:44:33;95895.47;;;21.96;100.00
21361;BME280;10839;43.206;23.550;2023-08-06T05:46:59;95887.13;;;22.19;100.00
21361;BME280;10839;43.206;23.550;2023-08-06T05:49:24;95880.06;;;22.32;100.00
21361;BME280;10839;43.206;23.550;2023-08-06T05:51:50;95878.84;;;22.56;100.00
21361;BME280;10839;43.206;23.550;2023-08-06T05:54:19;95884.06;;;22.71;100.00
21361;BME280;10839;43.206;23.550;2023-08-06T05:56:44;95910.34;;;23.59;100.00
21361;BME280;10839;43.206;23.550;2023-08-06T05:59:10;95917.88;;;23.67;100.00
21361;BME280;10839;43.206;23.550;2023-08-06T06:01:36;95924.13;;;23.81;99.51
21361;BME280;10839;43.206;23.550;2023-08-06T06:04:02;95926.97;;;23.76;99.78
21361;BME280;10839;43.206;23.550;2023-08-06T06:06:28;95908.50;;;23.41;100.00
21361;BME280;10839;43.206;23.550;2023-08-06T06:08:54;95903.31;;;23.53;100.00
21361;BME280;10839;43.206;23.550;2023-08-06T06:11:20;95909.13;;;23.38;100.00
21361;BME280;10839;43.206;23.550;2023-08-06T06:13:51;95911.34;;;23.36;100.00
21361;BME280;10839;43.206;23.550;2023-08-06T06:16:17;95919.97;;;23.16;100.00
21361;BME280;10839;43.206;23.550;2023-08-06T06:18:43;95943.47;;;23.22;100.00
21361;BME280;10839;43.206;23.550;2023-08-06T06:21:10;95950.81;;;23.40;100.00
21361;BME280;10839;43.206;23.550;2023-08-06T06:23:36;95936.34;;;23.21;100.00
21361;BME280;10839;43.206;23.550;2023-08-06T06:26:02;95949.97;;;23.12;100.00
21361;BME280;10839;43.206;23.550;2023-08-06T06:28:28;95960.31;;;23.02;100.00
21361;BME280;10839;43.206;23.550;2023-08-06T06:31:00;95957.66;;;22.97;100.00
21361;BME280;10839;43.206;23.550;2023-08-06T06:33:27;95960.31;;;23.02;100.00
21361;BME280;10839;43.206;23.550;2023-08-06T06:35:53;95956.06;;;23.09;100.00
21361;BME280;10839;43.206;23.550;2023-08-06T06:38:19;95958.50;;;23.24;100.00
21361;BME280;10839;43.206;23.550;2023-08-06T06:40:53;95965.44;;;23.22;100.00
21361;BME280;10839;43.206;23.550;2023-08-06T06:43:19;95967.31;;;23.40;100.00
21361;BME280;10839;43.206;23.550;2023-08-06T06:45:45;95968.88;;;23.14;100.00
21361;BME280;10839;43.206;23.550;2023-08-06T06:48:11;95970.25;;;22.98;100.00
21361;BME280;10839;43.206;23.550;2023-08-06T06:50:37;95983.31;;;23.06;100.00
21361;BME280;10839;43.206;23.550;2023-08-06T06:53:05;95978.63;;;23.20;100.00
21361;BME280;10839;43.206;23.550;2023-08-06T06:55:30;95971.84;;;23.31;100.00
21361;BME280;10839;43.206;23.550;2023-08-06T06:57:56;95974.72;;;23.39;100.00
21361;BME280;10839;43.206;23.550;2023-08-06T07:00:22;95984.31;;;23.69;100.00
21361;BME280;10839;43.206;23.550;2023-08-06T07:02:48;95985.38;;;23.95;99.43
21361;BME280;10839;43.206;23.550;2023-08-06T07:05:13;95988.47;;;23.66;100.00
21361;BME280;10839;43.206;23.550;2023-08-06T07:07:39;95991.63;;;23.60;100.00
21361;BME280;10839;43.206;23.550;2023-08-06T07:10:05;96002.72;;;23.82;99.74
21361;BME280;10839;43.206;23.550;2023-08-06T07:12:31;96011.63;;;23.33;100.00
21361;BME280;10839;43.206;23.550;2023-08-06T07:14:57;96017.75;;;23.71;100.00
21361;BME280;10839;43.206;23.550;2023-08-06T07:17:23;96019.78;;;24.20;95.81
21361;BME280;10839;43.206;23.550;2023-08-06T07:19:49;96013.53;;;24.41;93.61
21361;BME280;10839;43.206;23.550;2023-08-06T07:22:15;96016.75;;;24.79;92.44
21361;BME280;10839;43.206;23.550;2023-08-06T07:24:40;96029.13;;;24.32;93.38
21361;BME280;10839;43.206;23.550;2023-08-06T07:27:06;96028.66;;;24.52;93.38
21361;BME280;10839;43.206;23.550;2023-08-06T07:29:32;96040.16;;;24.54;91.09
21361;BME280;10839;43.206;23.550;2023-08-06T07:31:58;96033.00;;;24.31;92.05
21361;BME280;10839;43.206;23.550;2023-08-06T07:34:24;96035.75;;;24.31;92.29
21361;BME280;10839;43.206;23.550;2023-08-06T07:36:49;96022.22;;;24.21;93.68
21361;BME280;10839;43.206;23.550;2023-08-06T07:39:15;96031.59;;;23.93;95.06
21361;BME280;10839;43.206;23.550;2023-08-06T07:41:42;96027.44;;;24.09;93.91
21361;BME280;10839;43.206;23.550;2023-08-06T07:44:08;96021.78;;;24.41;91.07
21361;BME280;10839;43.206;23.550;2023-08-06T07:46:34;96024.44;;;24.33;91.89
21361;BME280;10839;43.206;23.550;2023-08-06T07:48:59;96013.69;;;23.82;94.31
21361;BME280;10839;43.206;23.550;2023-08-06T07:51:25;96023.66;;;24.19;93.54
21361;BME280;10839;43.206;23.550;2023-08-06T07:53:51;96026.09;;;24.20;93.75
21361;BME280;10839;43.206;23.550;2023-08-06T07:56:17;96021.38;;;24.34;93.47
21361;BME280;10839;43.206;23.550;2023-08-06T07:58:43;96036.78;;;24.57;88.14
21361;BME280;10839;43.206;23.550;2023-08-06T08:01:09;96035.75;;;24.67;87.06
21361;BME280;10839;43.206;23.550;2023-08-06T08:03:34;96035.63;;;24.36;87.52
21361;BME280;10839;43.206;23.550;2023-08-06T08:06:00;96044.56;;;24.55;85.19
21361;BME280;10839;43.206;23.550;2023-08-06T08:08:26;96041.34;;;24.26;82.41
21361;BME280;10839;43.206;23.550;2023-08-06T08:10:52;96048.72;;;24.17;84.00
21361;BME280;10839;43.206;23.550;2023-08-06T08:13:18;96044.50;;;24.33;84.05
21361;BME280;10839;43.206;23.550;2023-08-06T08:15:44;96047.47;;;24.23;87.20
21361;BME280;10839;43.206;23.550;2023-08-06T08:18:09;96042.91;;;24.54;85.33
21361;BME280;10839;43.206;23.550;2023-08-06T08:20:35;96041.34;;;25.19;82.34
21361;BME280;10839;43.206;23.550;2023-08-06T08:23:01;96042.81;;;26.17;78.32
21361;BME280;10839;43.206;23.550;2023-08-06T08:25:28;96043.50;;;27.59;71.14
21361;BME280;10839;43.206;23.550;2023-08-06T08:27:55;96024.63;;;28.08;66.15
21361;BME280;10839;43.206;23.550;2023-08-06T08:30:21;96039.84;;;27.93;66.95
21361;BME280;10839;43.206;23.550;2023-08-06T08:32:48;96040.63;;;28.31;66.07
21361;BME280;10839;43.206;23.550;2023-08-06T08:35:14;96042.53;;;28.39;64.29
21361;BME280;10839;43.206;23.550;2023-08-06T08:37:42;96044.66;;;28.05;64.24
21361;BME280;10839;43.206;23.550;2023-08-06T08:40:09;96049.22;;;28.30;62.93
21361;BME280;10839;43.206;23.550;2023-08-06T08:42:35;96049.31;;;28.92;61.13
21361;BME280;10839;43.206;23.550;2023-08-06T08:45:03;96051.28;;;29.32;57.33
21361;BME280;10839;43.206;23.550;2023-08-06T08:47:30;96042.97;;;29.32;58.05
21361;BME280;10839;43.206;23.550;2023-08-06T08:49:57;96039.88;;;29.13;59.80
21361;BME280;10839;43.206;23.550;2023-08-06T08:52:25;96034.06;;;28.07;62.82
21361;BME280;10839;43.206;23.550;2023-08-06T08:54:53;96027.16;;;29.77;57.00
21361;BME280;10839;43.206;23.550;2023-08-06T08:57:20;96022.78;;;30.61;54.37
21361;BME280;10839;43.206;23.550;2023-08-06T08:59:46;96017.66;;;30.75;53.74
21361;BME280;10839;43.206;23.550;2023-08-06T09:02:13;96011.28;;;30.86;52.73
21361;BME280;10839;43.206;23.550;2023-08-06T09:04:42;96008.44;;;31.38;52.35
21361;BME280;10839;43.206;23.550;2023-08-06T09:07:10;95998.91;;;32.13;50.08
21361;BME280;10839;43.206;23.550;2023-08-06T09:09:39;96006.38;;;32.09;50.21
21361;BME280;10839;43.206;23.550;2023-08-06T09:12:12;95997.59;;;30.42;51.98
21361;BME280;10839;43.206;23.550;2023-08-06T09:14:38;96009.63;;;30.46;52.46
21361;BME280;10839;43.206;23.550;2023-08-06T09:17:04;96005.91;;;31.33;50.13
21361;BME280;10839;43.206;23.550;2023-08-06T09:19:31;95993.50;;;31.74;49.41
21361;BME280;10839;43.206;23.550;2023-08-06T09:21:58;95994.75;;;31.61;48.96
21361;BME280;10839;43.206;23.550;2023-08-06T09:24:24;95982.56;;;31.65;49.77
21361;BME280;10839;43.206;23.550;2023-08-06T09:26:51;95986.44;;;32.38;48.17
21361;BME280;10839;43.206;23.550;2023-08-06T09:29:18;95985.53;;;33.04;46.04
21361;BME280;10839;43.206;23.550;2023-08-06T09:31:45;95976.94;;;32.78;46.40
21361;BME280;10839;43.206;23.550;2023-08-06T09:34:19;95979.16;;;32.69;47.88
21361;BME280;10839;43.206;23.550;2023-08-06T09:36:47;95971.69;;;32.22;48.32
21361;BME280;10839;43.206;23.550;2023-08-06T09:39:18;95987.66;;;33.71;45.83
21361;BME280;10839;43.206;23.550;2023-08-06T09:41:44;95975.06;;;33.39;45.83
21361;BME280;10839;43.206;23.550;2023-08-06T09:44:16;95978.06;;;33.49;46.00
21361;BME280;10839;43.206;23.550;2023-08-06T09:46:49;95984.69;;;33.83;46.04
21361;BME280;10839;43.206;23.550;2023-08-06T09:49:17;95983.75;;;33.34;46.01
21361;BME280;10839;43.206;23.550;2023-08-06T09:51:44;95987.38;;;32.46;47.40
21361;BME280;10839;43.206;23.550;2023-08-06T09:54:12;95990.19;;;32.30;48.08
21361;BME280;10839;43.206;23.550;2023-08-06T09:56:38;95994.06;;;32.10;48.59
21361;BME280;10839;43.206;23.550;2023-08-06T09:59:05;96007.25;;;33.14;47.04
21361;BME280;10839;43.206;23.550;2023-08-06T10:01:34;95990.88;;;32.27;47.20
21361;BME280;10839;43.206;23.550;2023-08-06T10:04:03;96005.41;;;32.68;46.32
21361;BME280;10839;43.206;23.550;2023-08-06T10:06:29;96005.88;;;32.89;46.44
21361;BME280;10839;43.206;23.550;2023-08-06T10:08:55;96002.28;;;32.38;44.76
21361;BME280;10839;43.206;23.550;2023-08-06T10:11:22;96007.78;;;32.85;43.00
21361;BME280;10839;43.206;23.550;2023-08-06T10:13:51;96004.47;;;33.14;42.61
21361;BME280;10839;43.206;23.550;2023-08-06T10:16:20;96010.69;;;32.22;44.05
21361;BME280;10839;43.206;23.550;2023-08-06T10:18:47;96016.94;;;31.57;45.50
21361;BME280;10839;43.206;23.550;2023-08-06T10:21:14;96012.50;;;31.56;45.77
21361;BME280;10839;43.206;23.550;2023-08-06T10:23:41;96002.56;;;31.00;47.93
21361;BME280;10839;43.206;23.550;2023-08-06T10:26:07;96002.19;;;30.62;47.63
21361;BME280;10839;43.206;23.550;2023-08-06T10:28:34;96019.53;;;29.86;48.92
21361;BME280;10839;43.206;23.550;2023-08-06T10:31:03;96013.72;;;29.35;51.44
21361;BME280;10839;43.206;23.550;2023-08-06T10:33:44;96014.50;;;29.56;52.31
21361;BME280;10839;43.206;23.550;2023-08-06T10:36:10;96002.44;;;29.96;51.31
21361;BME280;10839;43.206;23.550;2023-08-06T10:38:49;96010.44;;;29.53;51.77
21361;BME280;10839;43.206;23.550;2023-08-06T10:41:23;96024.88;;;29.14;53.39
21361;BME280;10839;43.206;23.550;2023-08-06T10:44:05;96016.22;;;28.95;54.34
21361;BME280;10839;43.206;23.550;2023-08-06T10:46:32;96017.16;;;28.99;54.34
21361;BME280;10839;43.206;23.550;2023-08-06T10:48:58;96020.28;;;28.77;55.76
21361;BME280;10839;43.206;23.550;2023-08-06T10:51:24;96014.63;;;28.53;57.16
21361;BME280;10839;43.206;23.550;2023-08-06T10:53:51;96012.81;;;28.48;57.38
21361;BME280;10839;43.206;23.550;2023-08-06T10:56:18;96020.91;;;28.33;57.73
21361;BME280;10839;43.206;23.550;2023-08-06T10:58:45;96013.47;;;28.25;58.15
21361;BME280;10839;43.206;23.550;2023-08-06T11:01:11;96007.06;;;28.04;58.25
21361;BME280;10839;43.206;23.550;2023-08-06T11:03:38;96012.75;;;28.07;58.72
21361;BME280;10839;43.206;23.550;2023-08-06T11:06:04;96008.59;;;28.22;58.02
21361;BME280;10839;43.206;23.550;2023-08-06T11:08:35;96018.53;;;28.52;57.25
21361;BME280;10839;43.206;23.550;2023-08-06T11:11:11;96009.31;;;28.10;57.68
21361;BME280;10839;43.206;23.550;2023-08-06T11:13:46;96008.88;;;28.58;56.53
21361;BME280;10839;43.206;23.550;2023-08-06T11:16:18;96007.09;;;29.15;55.29
21361;BME280;10839;43.206;23.550;2023-08-06T11:18:45;96006.84;;;29.08;55.22
21361;BME280;10839;43.206;23.550;2023-08-06T11:21:11;96016.78;;;28.68;56.40
21361;BME280;10839;43.206;23.550;2023-08-06T11:23:40;96012.69;;;29.07;56.65
21361;BME280;10839;43.206;23.550;2023-08-06T11:26:06;96014.06;;;29.21;56.04
21361;BME280;10839;43.206;23.550;2023-08-06T11:28:32;96015.28;;;29.44;55.08
21361;BME280;10839;43.206;23.550;2023-08-06T11:30:58;96022.69;;;29.52;55.17
21361;BME280;10839;43.206;23.550;2023-08-06T11:33:27;96023.63;;;29.03;55.78
21361;BME280;10839;43.206;23.550;2023-08-06T11:35:58;96034.78;;;29.36;55.69
21361;BME280;10839;43.206;23.550;2023-08-06T11:38:26;96031.28;;;29.59;55.00
21361;BME280;10839;43.206;23.550;2023-08-06T11:40:52;96026.50;;;29.15;56.23
21361;BME280;10839;43.206;23.550;2023-08-06T11:43:19;96028.81;;;28.93;56.33
21361;BME280;10839;43.206;23.550;2023-08-06T11:45:46;96033.59;;;29.04;56.23
21361;BME280;10839;43.206;23.550;2023-08-06T11:48:12;96047.16;;;28.97;57.94
21361;BME280;10839;43.206;23.550;2023-08-06T11:50:38;96053.13;;;28.87;59.31
21361;BME280;10839;43.206;23.550;2023-08-06T11:53:04;96067.78;;;28.38;59.91
21361;BME280;10839;43.206;23.550;2023-08-06T11:55:30;96055.50;;;27.63;58.68
21361;BME280;10839;43.206;23.550;2023-08-06T11:57:57;96068.41;;;27.59;58.22
21361;BME280;10839;43.206;23.550;2023-08-06T12:00:24;96051.56;;;27.01;63.81
21361;BME280;10839;43.206;23.550;2023-08-06T12:02:51;96042.56;;;26.44;70.64
21361;BME280;10839;43.206;23.550;2023-08-06T12:05:19;96048.38;;;26.26;74.11
21361;BME280;10839;43.206;23.550;2023-08-06T12:08:00;96054.03;;;26.21;76.54
21361;BME280;10839;43.206;23.550;2023-08-06T12:10:28;96060.09;;;26.01;76.96
21361;BME280;10839;43.206;23.550;2023-08-06T12:12:54;96059.25;;;25.83;79.59
21361;BME280;10839;43.206;23.550;2023-08-06T12:15:21;96064.38;;;25.46;81.90
21361;BME280;10839;43.206;23.550;2023-08-06T12:17:47;96070.50;;;25.65;80.51
21361;BME280;10839;43.206;23.550;2023-08-06T12:20:13;96068.44;;;25.79;79.56
21361;BME280;10839;43.206;23.550;2023-08-06T12:22:39;96053.53;;;25.80;79.29
21361;BME280;10839;43.206;23.550;2023-08-06T12:25:07;96068.38;;;25.62;79.45
21361;BME280;10839;43.206;23.550;2023-08-06T12:27:37;96038.34;;;24.85;79.46
21361;BME280;10839;43.206;23.550;2023-08-06T12:30:05;96024.06;;;23.58;86.62
21361;BME280;10839;43.206;23.550;2023-08-06T12:32:31;96017.94;;;23.34;86.83
21361;BME280;10839;43.206;23.550;2023-08-06T12:34:57;96012.97;;;23.76;84.03
21361;BME280;10839;43.206;23.550;2023-08-06T12:37:26;96009.19;;;23.32;81.20
21361;BME280;10839;43.206;23.550;2023-08-06T12:39:53;95999.97;;;22.96;85.94
21361;BME280;10839;43.206;23.550;2023-08-06T12:42:19;95998.91;;;22.92;84.58
21361;BME280;10839;43.206;23.550;2023-08-06T12:44:45;95978.84;;;23.23;81.30
21361;BME280;10839;43.206;23.550;2023-08-06T12:47:10;95988.94;;;24.09;77.85
21361;BME280;10839;43.206;23.550;2023-08-06T12:49:36;95983.16;;;23.97;77.74